CheckWX is a tool to help pilots better visualize weather data.  It is not intended as a substitute for an official pre-flight weather briefing.

12:01:35 UTC

KASE TAF
Aspen-Pitkin Co / Sardy Field Airport
Aspen, Colorado, USA
KASE 251120Z 2512/2612 21005KT P6SM BKN025 FM251600 22006KT P6SM SCT030 FM251800 34008KT P6SM FEW120 FM260200 19008KT P6SM SKC

Mar-25@
12:00 UTC

Mar-25 @ 12:00 UTC

Mar-25@
16:00 UTC

Mar-25 @ 16:00 UTC

KASE 251120Z 2512/2612 21005KT P6SM BKN025
Wind
  • 210° at 5 KTS
Cloud Levels
  • Broken at 2,500' AGL

Mar-25@
16:00 UTC

Mar-25 @ 16:00 UTC

Mar-25@
18:00 UTC

Mar-25 @ 18:00 UTC

FM251600 22006KT P6SM SCT030

From

From Standard forecast or significant change

Wind
  • 220° at 6 KTS
Cloud Levels
  • Scattered at 3,000' AGL

Mar-25@
18:00 UTC

Mar-25 @ 18:00 UTC

Mar-26@
02:00 UTC

Mar-26 @ 02:00 UTC

FM251800 34008KT P6SM FEW120

From

From Standard forecast or significant change

Wind
  • 340° at 8 KTS
Cloud Levels
  • Few at 12,000' AGL

Mar-26@
02:00 UTC

Mar-26 @ 02:00 UTC

Mar-26@
12:00 UTC

Mar-26 @ 12:00 UTC

FM260200 19008KT P6SM SKC

From

From Standard forecast or significant change

Wind
  • 190° at 8 KTS
Cloud Levels
  • Clear skies